sensor_id;sensor_type;location;lat;lon;timestamp;P1;durP1;ratioP1;P2;durP2;ratioP2
76540;SDS011;65385;55.772;37.658;2023-07-24T00:00:57;3.53;;;3.10;;
76540;SDS011;65385;55.772;37.658;2023-07-24T00:01:57;6.57;;;3.20;;
76540;SDS011;65385;55.772;37.658;2023-07-24T00:02:58;3.97;;;3.50;;
76540;SDS011;65385;55.772;37.658;2023-07-24T00:03:59;5.22;;;3.53;;
76540;SDS011;65385;55.772;37.658;2023-07-24T00:04:59;7.00;;;3.40;;
76540;SDS011;65385;55.772;37.658;2023-07-24T00:06:00;5.80;;;3.55;;
76540;SDS011;65385;55.772;37.658;2023-07-24T00:07:02;6.25;;;3.30;;
76540;SDS011;65385;55.772;37.658;2023-07-24T00:08:03;3.78;;;3.10;;
76540;SDS011;65385;55.772;37.658;2023-07-24T00:09:04;6.38;;;3.40;;
76540;SDS011;65385;55.772;37.658;2023-07-24T00:10:04;5.07;;;3.38;;
76540;SDS011;65385;55.772;37.658;2023-07-24T00:11:07;7.10;;;3.28;;
76540;SDS011;65385;55.772;37.658;2023-07-24T00:12:08;4.65;;;3.20;;
76540;SDS011;65385;55.772;37.658;2023-07-24T00:13:09;6.68;;;3.28;;
76540;SDS011;65385;55.772;37.658;2023-07-24T00:14:09;4.28;;;3.38;;
76540;SDS011;65385;55.772;37.658;2023-07-24T00:15:10;7.65;;;3.58;;
76540;SDS011;65385;55.772;37.658;2023-07-24T00:16:10;5.15;;;3.13;;
76540;SDS011;65385;55.772;37.658;2023-07-24T00:17:11;7.22;;;2.97;;
76540;SDS011;65385;55.772;37.658;2023-07-24T00:18:11;6.55;;;3.05;;
76540;SDS011;65385;55.772;37.658;2023-07-24T00:19:12;3.60;;;3.28;;
76540;SDS011;65385;55.772;37.658;2023-07-24T00:20:13;4.82;;;3.58;;
76540;SDS011;65385;55.772;37.658;2023-07-24T00:21:13;6.47;;;3.40;;
76540;SDS011;65385;55.772;37.658;2023-07-24T00:22:14;4.55;;;3.28;;
76540;SDS011;65385;55.772;37.658;2023-07-24T00:23:15;4.57;;;3.40;;
76540;SDS011;65385;55.772;37.658;2023-07-24T00:24:15;6.18;;;3.30;;
76540;SDS011;65385;55.772;37.658;2023-07-24T00:25:16;5.32;;;3.60;;
76540;SDS011;65385;55.772;37.658;2023-07-24T00:26:16;4.72;;;3.17;;
76540;SDS011;65385;55.772;37.658;2023-07-24T00:27:17;3.92;;;3.30;;
76540;SDS011;65385;55.772;37.658;2023-07-24T00:28:19;5.30;;;3.30;;
76540;SDS011;65385;55.772;37.658;2023-07-24T00:29:20;5.15;;;3.00;;
76540;SDS011;65385;55.772;37.658;2023-07-24T00:30:20;4.72;;;3.10;;
76540;SDS011;65385;55.772;37.658;2023-07-24T00:31:21;4.45;;;3.05;;
76540;SDS011;65385;55.772;37.658;2023-07-24T00:32:21;3.75;;;3.05;;
76540;SDS011;65385;55.772;37.658;2023-07-24T00:33:22;4.93;;;2.95;;
76540;SDS011;65385;55.772;37.658;2023-07-24T00:34:23;8.30;;;3.40;;
76540;SDS011;65385;55.772;37.658;2023-07-24T00:35:33;3.17;;;2.88;;
76540;SDS011;65385;55.772;37.658;2023-07-24T00:36:34;9.10;;;3.67;;
76540;SDS011;65385;55.772;37.658;2023-07-24T00:37:34;3.53;;;2.95;;
76540;SDS011;65385;55.772;37.658;2023-07-24T00:38:35;5.15;;;3.33;;
76540;SDS011;65385;55.772;37.658;2023-07-24T00:39:36;4.60;;;3.10;;
76540;SDS011;65385;55.772;37.658;2023-07-24T00:40:36;4.68;;;3.50;;
76540;SDS011;65385;55.772;37.658;2023-07-24T00:41:37;5.55;;;3.40;;
76540;SDS011;65385;55.772;37.658;2023-07-24T00:42:37;3.70;;;3.10;;
76540;SDS011;65385;55.772;37.658;2023-07-24T00:43:38;7.05;;;3.03;;
76540;SDS011;65385;55.772;37.658;2023-07-24T00:44:39;5.15;;;3.38;;
76540;SDS011;65385;55.772;37.658;2023-07-24T00:45:40;7.85;;;3.28;;
76540;SDS011;65385;55.772;37.658;2023-07-24T00:46:40;4.95;;;3.47;;
76540;SDS011;65385;55.772;37.658;2023-07-24T00:47:42;7.47;;;3.13;;
76540;SDS011;65385;55.772;37.658;2023-07-24T00:48:43;4.50;;;3.35;;
76540;SDS011;65385;55.772;37.658;2023-07-24T00:49:44;6.22;;;3.17;;
76540;SDS011;65385;55.772;37.658;2023-07-24T00:50:45;5.40;;;3.30;;
76540;SDS011;65385;55.772;37.658;2023-07-24T00:51:46;4.57;;;3.28;;
76540;SDS011;65385;55.772;37.658;2023-07-24T00:52:47;4.82;;;3.30;;
76540;SDS011;65385;55.772;37.658;2023-07-24T00:53:48;4.88;;;2.97;;
76540;SDS011;65385;55.772;37.658;2023-07-24T00:54:48;7.43;;;3.90;;
76540;SDS011;65385;55.772;37.658;2023-07-24T00:55:49;5.15;;;3.17;;
76540;SDS011;65385;55.772;37.658;2023-07-24T00:56:50;5.03;;;3.60;;
76540;SDS011;65385;55.772;37.658;2023-07-24T00:57:51;3.97;;;2.90;;
76540;SDS011;65385;55.772;37.658;2023-07-24T00:58:52;7.63;;;3.50;;
76540;SDS011;65385;55.772;37.658;2023-07-24T00:59:56;4.32;;;3.28;;
76540;SDS011;65385;55.772;37.658;2023-07-24T01:00:57;6.40;;;3.38;;
76540;SDS011;65385;55.772;37.658;2023-07-24T01:01:58;5.60;;;3.78;;
76540;SDS011;65385;55.772;37.658;2023-07-24T01:02:59;5.43;;;3.55;;
76540;SDS011;65385;55.772;37.658;2023-07-24T01:04:00;3.40;;;2.90;;
76540;SDS011;65385;55.772;37.658;2023-07-24T01:05:02;5.60;;;3.30;;
76540;SDS011;65385;55.772;37.658;2023-07-24T01:06:06;6.95;;;3.40;;
76540;SDS011;65385;55.772;37.658;2023-07-24T01:07:08;3.78;;;3.10;;
76540;SDS011;65385;55.772;37.658;2023-07-24T01:08:11;5.75;;;3.42;;
76540;SDS011;65385;55.772;37.658;2023-07-24T01:09:12;3.83;;;3.13;;
76540;SDS011;65385;55.772;37.658;2023-07-24T01:10:13;8.00;;;3.53;;
76540;SDS011;65385;55.772;37.658;2023-07-24T01:11:18;6.65;;;3.25;;
76540;SDS011;65385;55.772;37.658;2023-07-24T01:12:22;5.18;;;3.20;;
76540;SDS011;65385;55.772;37.658;2023-07-24T01:13:25;5.38;;;3.20;;
76540;SDS011;65385;55.772;37.658;2023-07-24T01:18:09;5.32;;;3.35;;
76540;SDS011;65385;55.772;37.658;2023-07-24T01:19:12;6.15;;;3.58;;
76540;SDS011;65385;55.772;37.658;2023-07-24T01:20:33;5.28;;;3.13;;
76540;SDS011;65385;55.772;37.658;2023-07-24T01:23:21;5.45;;;2.90;;
76540;SDS011;65385;55.772;37.658;2023-07-24T01:24:33;3.35;;;3.05;;
76540;SDS011;65385;55.772;37.658;2023-07-24T01:25:54;3.30;;;2.88;;
76540;SDS011;65385;55.772;37.658;2023-07-24T01:26:57;4.53;;;3.00;;
76540;SDS011;65385;55.772;37.658;2023-07-24T01:27:58;4.50;;;3.10;;
76540;SDS011;65385;55.772;37.658;2023-07-24T01:28:59;6.20;;;3.28;;
76540;SDS011;65385;55.772;37.658;2023-07-24T01:29:59;7.50;;;3.30;;
76540;SDS011;65385;55.772;37.658;2023-07-24T01:31:00;4.93;;;3.20;;
76540;SDS011;65385;55.772;37.658;2023-07-24T01:32:01;5.30;;;3.20;;
76540;SDS011;65385;55.772;37.658;2023-07-24T01:33:02;6.07;;;3.40;;
76540;SDS011;65385;55.772;37.658;2023-07-24T01:34:02;4.72;;;2.97;;
76540;SDS011;65385;55.772;37.658;2023-07-24T01:35:03;5.03;;;3.13;;
76540;SDS011;65385;55.772;37.658;2023-07-24T01:36:04;6.18;;;3.38;;
76540;SDS011;65385;55.772;37.658;2023-07-24T01:37:06;6.68;;;4.05;;
76540;SDS011;65385;55.772;37.658;2023-07-24T01:38:07;4.03;;;3.20;;
76540;SDS011;65385;55.772;37.658;2023-07-24T01:39:08;6.47;;;3.08;;
76540;SDS011;65385;55.772;37.658;2023-07-24T01:40:10;5.63;;;3.10;;
76540;SDS011;65385;55.772;37.658;2023-07-24T01:41:11;3.65;;;3.03;;
76540;SDS011;65385;55.772;37.658;2023-07-24T01:42:12;6.78;;;4.47;;
76540;SDS011;65385;55.772;37.658;2023-07-24T01:43:14;6.22;;;3.15;;
76540;SDS011;65385;55.772;37.658;2023-07-24T01:44:15;4.20;;;3.13;;
76540;SDS011;65385;55.772;37.658;2023-07-24T01:45:15;4.88;;;2.70;;
76540;SDS011;65385;55.772;37.658;2023-07-24T01:46:16;4.47;;;3.05;;
76540;SDS011;65385;55.772;37.658;2023-07-24T01:47:17;5.82;;;3.00;;
76540;SDS011;65385;55.772;37.658;2023-07-24T01:48:18;3.90;;;3.22;;
76540;SDS011;65385;55.772;37.658;2023-07-24T01:49:19;6.55;;;2.85;;
76540;SDS011;65385;55.772;37.658;2023-07-24T01:50:19;4.63;;;3.15;;
76540;SDS011;65385;55.772;37.658;2023-07-24T01:51:20;5.43;;;2.97;;
76540;SDS011;65385;55.772;37.658;2023-07-24T01:52:21;5.70;;;2.95;;
76540;SDS011;65385;55.772;37.658;2023-07-24T01:53:22;5.30;;;2.92;;
76540;SDS011;65385;55.772;37.658;2023-07-24T01:54:23;4.72;;;3.17;;
76540;SDS011;65385;55.772;37.658;2023-07-24T01:55:24;4.30;;;2.90;;
76540;SDS011;65385;55.772;37.658;2023-07-24T01:56:25;4.47;;;3.00;;
76540;SDS011;65385;55.772;37.658;2023-07-24T01:57:25;3.33;;;2.80;;
76540;SDS011;65385;55.772;37.658;2023-07-24T01:58:26;3.17;;;2.70;;
76540;SDS011;65385;55.772;37.658;2023-07-24T01:59:27;4.60;;;2.75;;
76540;SDS011;65385;55.772;37.658;2023-07-24T02:00:27;4.68;;;2.80;;
76540;SDS011;65385;55.772;37.658;2023-07-24T02:01:34;2.88;;;2.58;;
76540;SDS011;65385;55.772;37.658;2023-07-24T02:02:34;5.03;;;3.38;;
76540;SDS011;65385;55.772;37.658;2023-07-24T02:03:35;4.70;;;2.88;;
76540;SDS011;65385;55.772;37.658;2023-07-24T02:04:36;3.92;;;2.90;;
76540;SDS011;65385;55.772;37.658;2023-07-24T02:05:38;3.67;;;2.90;;
76540;SDS011;65385;55.772;37.658;2023-07-24T02:06:39;4.05;;;3.22;;
76540;SDS011;65385;55.772;37.658;2023-07-24T02:07:39;4.93;;;2.90;;
76540;SDS011;65385;55.772;37.658;2023-07-24T02:08:40;4.97;;;2.90;;
76540;SDS011;65385;55.772;37.658;2023-07-24T02:09:42;4.65;;;2.58;;
76540;SDS011;65385;55.772;37.658;2023-07-24T02:10:43;2.60;;;2.40;;
76540;SDS011;65385;55.772;37.658;2023-07-24T02:11:43;4.18;;;2.47;;
76540;SDS011;65385;55.772;37.658;2023-07-24T02:12:44;3.72;;;2.65;;
76540;SDS011;65385;55.772;37.658;2023-07-24T02:13:45;3.03;;;2.60;;
76540;SDS011;65385;55.772;37.658;2023-07-24T02:14:46;5.97;;;2.85;;
76540;SDS011;65385;55.772;37.658;2023-07-24T02:15:50;5.43;;;2.67;;
76540;SDS011;65385;55.772;37.658;2023-07-24T02:16:52;5.93;;;2.75;;
76540;SDS011;65385;55.772;37.658;2023-07-24T02:17:53;3.20;;;2.90;;
76540;SDS011;65385;55.772;37.658;2023-07-24T02:18:54;3.47;;;2.30;;
76540;SDS011;65385;55.772;37.658;2023-07-24T02:19:55;4.47;;;2.55;;
76540;SDS011;65385;55.772;37.658;2023-07-24T02:20:55;3.63;;;2.80;;
76540;SDS011;65385;55.772;37.658;2023-07-24T02:21:58;3.97;;;2.50;;
76540;SDS011;65385;55.772;37.658;2023-07-24T02:22:59;4.68;;;2.97;;
76540;SDS011;65385;55.772;37.658;2023-07-24T02:24:01;3.55;;;2.53;;
76540;SDS011;65385;55.772;37.658;2023-07-24T02:25:05;5.97;;;2.60;;
76540;SDS011;65385;55.772;37.658;2023-07-24T02:26:06;3.25;;;2.65;;
76540;SDS011;65385;55.772;37.658;2023-07-24T02:27:11;4.50;;;2.97;;
76540;SDS011;65385;55.772;37.658;2023-07-24T02:29:13;3.28;;;2.22;;
76540;SDS011;65385;55.772;37.658;2023-07-24T02:30:13;5.20;;;2.53;;
76540;SDS011;65385;55.772;37.658;2023-07-24T02:31:14;6.07;;;3.13;;
76540;SDS011;65385;55.772;37.658;2023-07-24T02:32:15;3.53;;;2.60;;
76540;SDS011;65385;55.772;37.658;2023-07-24T02:33:16;6.22;;;2.85;;
76540;SDS011;65385;55.772;37.658;2023-07-24T02:34:17;6.95;;;2.58;;
76540;SDS011;65385;55.772;37.658;2023-07-24T02:35:17;4.43;;;2.53;;
76540;SDS011;65385;55.772;37.658;2023-07-24T02:36:20;3.38;;;2.50;;
76540;SDS011;65385;55.772;37.658;2023-07-24T02:37:20;5.95;;;2.53;;
76540;SDS011;65385;55.772;37.658;2023-07-24T02:38:21;4.07;;;2.65;;
76540;SDS011;65385;55.772;37.658;2023-07-24T02:39:22;3.95;;;2.22;;
76540;SDS011;65385;55.772;37.658;2023-07-24T02:40:22;3.63;;;2.28;;
76540;SDS011;65385;55.772;37.658;2023-07-24T02:41:23;2.42;;;2.22;;
76540;SDS011;65385;55.772;37.658;2023-07-24T02:42:25;7.30;;;2.33;;
76540;SDS011;65385;55.772;37.658;2023-07-24T02:43:25;2.88;;;2.55;;
76540;SDS011;65385;55.772;37.658;2023-07-24T02:44:26;6.78;;;2.28;;
76540;SDS011;65385;55.772;37.658;2023-07-24T02:45:26;3.05;;;2.47;;
76540;SDS011;65385;55.772;37.658;2023-07-24T02:46:27;5.32;;;2.40;;
76540;SDS011;65385;55.772;37.658;2023-07-24T02:47:28;4.22;;;2.53;;
76540;SDS011;65385;55.772;37.658;2023-07-24T02:48:29;2.40;;;2.20;;
76540;SDS011;65385;55.772;37.658;2023-07-24T02:49:30;3.33;;;2.20;;
76540;SDS011;65385;55.772;37.658;2023-07-24T02:50:30;3.20;;;2.25;;
76540;SDS011;65385;55.772;37.658;2023-07-24T02:51:33;4.35;;;2.22;;
76540;SDS011;65385;55.772;37.658;2023-07-24T02:52:34;3.85;;;2.35;;
76540;SDS011;65385;55.772;37.658;2023-07-24T02:53:34;4.25;;;2.83;;
76540;SDS011;65385;55.772;37.658;2023-07-24T02:54:35;8.80;;;2.60;;
76540;SDS011;65385;55.772;37.658;2023-07-24T02:55:36;2.95;;;2.38;;
76540;SDS011;65385;55.772;37.658;2023-07-24T02:56:37;2.58;;;2.35;;
76540;SDS011;65385;55.772;37.658;2023-07-24T02:57:37;3.92;;;2.40;;
76540;SDS011;65385;55.772;37.658;2023-07-24T02:58:38;2.42;;;2.22;;
76540;SDS011;65385;55.772;37.658;2023-07-24T02:59:39;1.98;;;1.75;;
76540;SDS011;65385;55.772;37.658;2023-07-24T03:00:39;2.83;;;2.10;;
76540;SDS011;65385;55.772;37.658;2023-07-24T03:01:40;5.07;;;2.35;;
76540;SDS011;65385;55.772;37.658;2023-07-24T03:02:41;2.72;;;2.50;;
76540;SDS011;65385;55.772;37.658;2023-07-24T03:03:42;4.50;;;2.22;;
76540;SDS011;65385;55.772;37.658;2023-07-24T03:04:42;4.03;;;2.50;;
76540;SDS011;65385;55.772;37.658;2023-07-24T03:05:43;4.38;;;2.33;;
76540;SDS011;65385;55.772;37.658;2023-07-24T03:06:44;3.70;;;2.35;;
76540;SDS011;65385;55.772;37.658;2023-07-24T03:07:44;2.42;;;2.22;;
76540;SDS011;65385;55.772;37.658;2023-07-24T03:08:45;3.80;;;2.33;;
76540;SDS011;65385;55.772;37.658;2023-07-24T03:09:45;4.07;;;2.25;;
76540;SDS011;65385;55.772;37.658;2023-07-24T03:10:46;4.10;;;2.50;;
76540;SDS011;65385;55.772;37.658;2023-07-24T03:11:49;3.58;;;2.33;;
76540;SDS011;65385;55.772;37.658;2023-07-24T03:12:49;2.75;;;2.20;;
76540;SDS011;65385;55.772;37.658;2023-07-24T03:13:50;3.67;;;2.30;;
76540;SDS011;65385;55.772;37.658;2023-07-24T03:14:51;3.15;;;2.20;;
76540;SDS011;65385;55.772;37.658;2023-07-24T03:15:55;4.07;;;2.40;;
76540;SDS011;65385;55.772;37.658;2023-07-24T03:16:57;3.55;;;2.28;;
76540;SDS011;65385;55.772;37.658;2023-07-24T03:17:57;4.32;;;2.30;;
76540;SDS011;65385;55.772;37.658;2023-07-24T03:18:58;2.83;;;2.45;;
76540;SDS011;65385;55.772;37.658;2023-07-24T03:19:59;2.90;;;2.22;;
76540;SDS011;65385;55.772;37.658;2023-07-24T03:21:00;3.83;;;2.40;;
76540;SDS011;65385;55.772;37.658;2023-07-24T03:22:00;3.10;;;2.40;;
76540;SDS011;65385;55.772;37.658;2023-07-24T03:23:01;3.65;;;2.20;;
76540;SDS011;65385;55.772;37.658;2023-07-24T03:24:02;2.92;;;2.08;;
76540;SDS011;65385;55.772;37.658;2023-07-24T03:25:03;3.67;;;2.63;;
76540;SDS011;65385;55.772;37.658;2023-07-24T03:26:04;4.47;;;2.53;;
76540;SDS011;65385;55.772;37.658;2023-07-24T03:27:04;2.80;;;2.10;;
76540;SDS011;65385;55.772;37.658;2023-07-24T03:28:05;3.72;;;2.60;;
76540;SDS011;65385;55.772;37.658;2023-07-24T03:29:05;3.47;;;2.45;;
76540;SDS011;65385;55.772;37.658;2023-07-24T03:30:06;4.22;;;2.50;;
76540;SDS011;65385;55.772;37.658;2023-07-24T03:31:07;4.35;;;2.90;;
76540;SDS011;65385;55.772;37.658;2023-07-24T03:32:08;2.97;;;2.60;;
76540;SDS011;65385;55.772;37.658;2023-07-24T03:33:09;6.20;;;2.40;;
76540;SDS011;65385;55.772;37.658;2023-07-24T03:34:09;2.80;;;2.60;;
76540;SDS011;65385;55.772;37.658;2023-07-24T03:35:10;3.38;;;2.70;;
76540;SDS011;65385;55.772;37.658;2023-07-24T03:36:12;2.58;;;2.38;;
76540;SDS011;65385;55.772;37.658;2023-07-24T03:37:12;3.38;;;2.50;;
76540;SDS011;65385;55.772;37.658;2023-07-24T03:38:13;5.25;;;2.42;;
76540;SDS011;65385;55.772;37.658;2023-07-24T03:39:14;3.70;;;2.40;;
76540;SDS011;65385;55.772;37.658;2023-07-24T03:40:15;2.42;;;2.22;;
76540;SDS011;65385;55.772;37.658;2023-07-24T03:41:16;2.92;;;2.30;;
76540;SDS011;65385;55.772;37.658;2023-07-24T03:42:29;4.90;;;2.50;;
76540;SDS011;65385;55.772;37.658;2023-07-24T03:43:31;3.05;;;2.40;;
76540;SDS011;65385;55.772;37.658;2023-07-24T03:44:31;3.17;;;2.10;;
76540;SDS011;65385;55.772;37.658;2023-07-24T03:45:32;3.38;;;2.40;;
76540;SDS011;65385;55.772;37.658;2023-07-24T03:46:32;3.65;;;2.78;;
76540;SDS011;65385;55.772;37.658;2023-07-24T03:47:34;4.00;;;2.60;;
76540;SDS011;65385;55.772;37.658;2023-07-24T03:48:34;5.05;;;2.20;;
76540;SDS011;65385;55.772;37.658;2023-07-24T03:49:35;5.20;;;2.42;;
76540;SDS011;65385;55.772;37.658;2023-07-24T03:50:35;4.43;;;2.30;;
76540;SDS011;65385;55.772;37.658;2023-07-24T03:51:36;7.03;;;3.10;;
76540;SDS011;65385;55.772;37.658;2023-07-24T03:52:36;6.40;;;2.70;;
76540;SDS011;65385;55.772;37.658;2023-07-24T03:53:37;5.50;;;3.03;;
76540;SDS011;65385;55.772;37.658;2023-07-24T03:54:38;3.08;;;2.78;;
76540;SDS011;65385;55.772;37.658;2023-07-24T03:55:38;5.93;;;2.67;;
76540;SDS011;65385;55.772;37.658;2023-07-24T03:56:39;3.65;;;2.40;;
76540;SDS011;65385;55.772;37.658;2023-07-24T03:57:40;4.78;;;2.53;;
76540;SDS011;65385;55.772;37.658;2023-07-24T03:58:40;3.92;;;2.42;;
76540;SDS011;65385;55.772;37.658;2023-07-24T03:59:44;5.20;;;2.67;;
76540;SDS011;65385;55.772;37.658;2023-07-24T04:00:44;3.80;;;2.30;;
76540;SDS011;65385;55.772;37.658;2023-07-24T04:01:46;3.90;;;2.33;;
76540;SDS011;65385;55.772;37.658;2023-07-24T04:02:47;4.53;;;2.47;;
76540;SDS011;65385;55.772;37.658;2023-07-24T04:03:48;6.10;;;2.40;;
76540;SDS011;65385;55.772;37.658;2023-07-24T04:04:48;3.92;;;2.70;;
76540;SDS011;65385;55.772;37.658;2023-07-24T04:05:49;3.20;;;2.20;;
76540;SDS011;65385;55.772;37.658;2023-07-24T04:06:50;6.53;;;2.50;;
76540;SDS011;65385;55.772;37.658;2023-07-24T04:07:51;2.50;;;2.30;;
76540;SDS011;65385;55.772;37.658;2023-07-24T04:08:51;4.68;;;2.40;;
76540;SDS011;65385;55.772;37.658;2023-07-24T04:09:52;2.85;;;2.28;;
76540;SDS011;65385;55.772;37.658;2023-07-24T04:10:52;3.47;;;2.28;;
76540;SDS011;65385;55.772;37.658;2023-07-24T04:11:53;5.78;;;2.65;;
76540;SDS011;65385;55.772;37.658;2023-07-24T04:12:54;4.38;;;2.38;;
76540;SDS011;65385;55.772;37.658;2023-07-24T04:13:54;6.45;;;2.83;;
76540;SDS011;65385;55.772;37.658;2023-07-24T04:14:55;3.38;;;2.50;;
76540;SDS011;65385;55.772;37.658;2023-07-24T04:15:56;3.53;;;2.38;;
76540;SDS011;65385;55.772;37.658;2023-07-24T04:16:57;2.38;;;2.17;;
76540;SDS011;65385;55.772;37.658;2023-07-24T04:17:58;7.18;;;3.03;;
76540;SDS011;65385;55.772;37.658;2023-07-24T04:18:59;3.33;;;2.67;;
76540;SDS011;65385;55.772;37.658;2023-07-24T04:19:59;4.85;;;2.63;;
76540;SDS011;65385;55.772;37.658;2023-07-24T04:21:00;3.92;;;2.72;;
76540;SDS011;65385;55.772;37.658;2023-07-24T04:22:01;6.05;;;2.78;;
76540;SDS011;65385;55.772;37.658;2023-07-24T04:23:01;4.15;;;2.40;;
76540;SDS011;65385;55.772;37.658;2023-07-24T04:24:02;3.58;;;2.63;;
76540;SDS011;65385;55.772;37.658;2023-07-24T04:25:02;3.28;;;2.38;;
76540;SDS011;65385;55.772;37.658;2023-07-24T04:26:04;3.97;;;2.58;;
76540;SDS011;65385;55.772;37.658;2023-07-24T04:27:05;4.63;;;2.63;;
76540;SDS011;65385;55.772;37.658;2023-07-24T04:28:06;2.80;;;2.50;;
76540;SDS011;65385;55.772;37.658;2023-07-24T04:29:06;5.95;;;3.00;;
76540;SDS011;65385;55.772;37.658;2023-07-24T04:30:07;5.78;;;2.97;;
76540;SDS011;65385;55.772;37.658;2023-07-24T04:31:08;3.28;;;2.65;;
76540;SDS011;65385;55.772;37.658;2023-07-24T04:32:08;2.92;;;2.70;;
76540;SDS011;65385;55.772;37.658;2023-07-24T04:33:09;3.55;;;2.75;;
76540;SDS011;65385;55.772;37.658;2023-07-24T04:34:09;4.30;;;2.95;;
76540;SDS011;65385;55.772;37.658;2023-07-24T04:35:10;8.95;;;2.92;;
76540;SDS011;65385;55.772;37.658;2023-07-24T04:36:11;3.58;;;2.53;;
76540;SDS011;65385;55.772;37.658;2023-07-24T04:37:11;5.78;;;2.67;;
76540;SDS011;65385;55.772;37.658;2023-07-24T04:38:12;3.92;;;2.60;;
76540;SDS011;65385;55.772;37.658;2023-07-24T04:39:12;3.70;;;2.75;;
76540;SDS011;65385;55.772;37.658;2023-07-24T04:40:13;3.67;;;2.63;;
76540;SDS011;65385;55.772;37.658;2023-07-24T04:41:14;4.97;;;2.78;;
76540;SDS011;65385;55.772;37.658;2023-07-24T04:42:14;4.28;;;2.78;;
76540;SDS011;65385;55.772;37.658;2023-07-24T04:43:15;3.67;;;2.53;;
76540;SDS011;65385;55.772;37.658;2023-07-24T04:44:15;3.00;;;2.40;;
76540;SDS011;65385;55.772;37.658;2023-07-24T04:45:16;3.47;;;2.55;;
76540;SDS011;65385;55.772;37.658;2023-07-24T04:46:17;3.97;;;2.58;;
76540;SDS011;65385;55.772;37.658;2023-07-24T04:47:17;3.50;;;2.47;;
76540;SDS011;65385;55.772;37.658;2023-07-24T04:48:18;3.30;;;2.40;;
76540;SDS011;65385;55.772;37.658;2023-07-24T04:49:19;4.38;;;2.60;;
76540;SDS011;65385;55.772;37.658;2023-07-24T04:50:19;4.40;;;2.58;;
76540;SDS011;65385;55.772;37.658;2023-07-24T04:51:20;4.03;;;2.47;;
76540;SDS011;65385;55.772;37.658;2023-07-24T04:52:20;4.55;;;3.10;;
76540;SDS011;65385;55.772;37.658;2023-07-24T04:53:21;4.55;;;2.50;;
76540;SDS011;65385;55.772;37.658;2023-07-24T04:54:22;2.45;;;2.25;;
76540;SDS011;65385;55.772;37.658;2023-07-24T04:55:22;3.17;;;2.40;;
76540;SDS011;65385;55.772;37.658;2023-07-24T04:56:23;5.13;;;3.10;;
76540;SDS011;65385;55.772;37.658;2023-07-24T04:57:24;2.90;;;2.58;;
76540;SDS011;65385;55.772;37.658;2023-07-24T04:58:24;3.80;;;2.75;;
76540;SDS011;65385;55.772;37.658;2023-07-24T04:59:25;5.15;;;2.53;;
76540;SDS011;65385;55.772;37.658;2023-07-24T05:00:26;3.63;;;2.22;;
76540;SDS011;65385;55.772;37.658;2023-07-24T05:01:26;4.50;;;2.47;;
76540;SDS011;65385;55.772;37.658;2023-07-24T05:02:27;3.65;;;2.80;;
76540;SDS011;65385;55.772;37.658;2023-07-24T05:03:27;4.20;;;2.60;;
76540;SDS011;65385;55.772;37.658;2023-07-24T05:04:28;3.72;;;2.70;;
76540;SDS011;65385;55.772;37.658;2023-07-24T05:05:28;4.75;;;2.20;;
76540;SDS011;65385;55.772;37.658;2023-07-24T05:06:29;5.18;;;2.88;;
76540;SDS011;65385;55.772;37.658;2023-07-24T05:07:30;3.00;;;2.38;;
76540;SDS011;65385;55.772;37.658;2023-07-24T05:08:31;4.18;;;2.75;;
76540;SDS011;65385;55.772;37.658;2023-07-24T05:09:32;4.60;;;2.22;;
76540;SDS011;65385;55.772;37.658;2023-07-24T05:10:36;6.13;;;2.60;;
76540;SDS011;65385;55.772;37.658;2023-07-24T05:11:36;3.90;;;2.72;;
76540;SDS011;65385;55.772;37.658;2023-07-24T05:12:37;4.35;;;2.40;;
76540;SDS011;65385;55.772;37.658;2023-07-24T05:13:37;5.05;;;2.38;;
76540;SDS011;65385;55.772;37.658;2023-07-24T05:14:38;4.45;;;2.45;;
76540;SDS011;65385;55.772;37.658;2023-07-24T05:15:39;3.22;;;2.58;;
76540;SDS011;65385;55.772;37.658;2023-07-24T05:16:39;3.45;;;2.50;;
76540;SDS011;65385;55.772;37.658;2023-07-24T05:17:40;4.13;;;2.60;;
76540;SDS011;65385;55.772;37.658;2023-07-24T05:18:40;4.63;;;2.70;;
76540;SDS011;65385;55.772;37.658;2023-07-24T05:19:41;5.57;;;2.70;;
76540;SDS011;65385;55.772;37.658;2023-07-24T05:20:42;6.38;;;2.67;;
76540;SDS011;65385;55.772;37.658;2023-07-24T05:21:45;4.38;;;2.40;;
76540;SDS011;65385;55.772;37.658;2023-07-24T05:22:46;3.90;;;2.40;;
76540;SDS011;65385;55.772;37.658;2023-07-24T05:23:47;6.65;;;2.88;;
76540;SDS011;65385;55.772;37.658;2023-07-24T05:24:47;2.72;;;2.42;;
76540;SDS011;65385;55.772;37.658;2023-07-24T05:25:55;4.15;;;2.55;;
76540;SDS011;65385;55.772;37.658;2023-07-24T05:27:59;2.75;;;2.30;;
76540;SDS011;65385;55.772;37.658;2023-07-24T05:29:00;3.83;;;2.80;;
76540;SDS011;65385;55.772;37.658;2023-07-24T05:30:00;3.15;;;2.33;;
76540;SDS011;65385;55.772;37.658;2023-07-24T05:31:03;4.43;;;2.47;;
76540;SDS011;65385;55.772;37.658;2023-07-24T05:32:04;4.00;;;2.53;;
76540;SDS011;65385;55.772;37.658;2023-07-24T05:33:05;2.97;;;2.67;;
76540;SDS011;65385;55.772;37.658;2023-07-24T05:34:06;3.88;;;2.65;;
76540;SDS011;65385;55.772;37.658;2023-07-24T05:35:07;6.38;;;2.60;;
76540;SDS011;65385;55.772;37.658;2023-07-24T05:36:08;4.55;;;2.38;;
76540;SDS011;65385;55.772;37.658;2023-07-24T05:37:08;4.28;;;2.60;;
76540;SDS011;65385;55.772;37.658;2023-07-24T05:38:10;3.15;;;2.20;;
76540;SDS011;65385;55.772;37.658;2023-07-24T05:39:11;3.80;;;2.28;;
76540;SDS011;65385;55.772;37.658;2023-07-24T05:40:11;3.42;;;2.47;;
76540;SDS011;65385;55.772;37.658;2023-07-24T05:41:12;3.08;;;2.47;;
76540;SDS011;65385;55.772;37.658;2023-07-24T05:42:12;3.00;;;2.45;;
76540;SDS011;65385;55.772;37.658;2023-07-24T05:43:13;4.28;;;2.42;;
76540;SDS011;65385;55.772;37.658;2023-07-24T05:44:14;5.05;;;2.45;;
76540;SDS011;65385;55.772;37.658;2023-07-24T05:45:14;4.75;;;2.70;;
76540;SDS011;65385;55.772;37.658;2023-07-24T05:46:15;4.95;;;2.50;;
76540;SDS011;65385;55.772;37.658;2023-07-24T05:47:16;5.40;;;2.60;;
76540;SDS011;65385;55.772;37.658;2023-07-24T05:48:17;6.20;;;2.75;;
76540;SDS011;65385;55.772;37.658;2023-07-24T05:49:18;3.38;;;2.83;;
76540;SDS011;65385;55.772;37.658;2023-07-24T05:50:18;4.57;;;2.67;;
76540;SDS011;65385;55.772;37.658;2023-07-24T05:51:20;5.65;;;2.40;;
76540;SDS011;65385;55.772;37.658;2023-07-24T05:52:20;4.82;;;2.63;;
76540;SDS011;65385;55.772;37.658;2023-07-24T05:53:21;4.00;;;2.22;;
76540;SDS011;65385;55.772;37.658;2023-07-24T05:54:22;3.00;;;2.50;;
76540;SDS011;65385;55.772;37.658;2023-07-24T05:55:22;2.88;;;2.28;;
76540;SDS011;65385;55.772;37.658;2023-07-24T05:56:23;4.15;;;2.20;;
76540;SDS011;65385;55.772;37.658;2023-07-24T05:57:24;4.93;;;2.47;;
76540;SDS011;65385;55.772;37.658;2023-07-24T05:58:24;4.38;;;2.40;;
76540;SDS011;65385;55.772;37.658;2023-07-24T05:59:26;4.35;;;2.10;;
76540;SDS011;65385;55.772;37.658;2023-07-24T06:00:26;2.83;;;2.17;;
76540;SDS011;65385;55.772;37.658;2023-07-24T06:01:27;7.55;;;2.50;;
76540;SDS011;65385;55.772;37.658;2023-07-24T06:02:28;2.80;;;2.40;;
76540;SDS011;65385;55.772;37.658;2023-07-24T06:03:28;2.67;;;2.42;;
76540;SDS011;65385;55.772;37.658;2023-07-24T06:04:29;3.58;;;2.25;;
76540;SDS011;65385;55.772;37.658;2023-07-24T06:05:29;4.80;;;2.63;;
76540;SDS011;65385;55.772;37.658;2023-07-24T06:06:30;4.78;;;2.30;;
76540;SDS011;65385;55.772;37.658;2023-07-24T06:07:31;3.90;;;2.20;;
76540;SDS011;65385;55.772;37.658;2023-07-24T06:08:31;6.35;;;2.40;;
76540;SDS011;65385;55.772;37.658;2023-07-24T06:09:32;4.70;;;2.20;;
76540;SDS011;65385;55.772;37.658;2023-07-24T06:10:32;3.97;;;2.60;;